McClellan AFB, California
Current Conditions -  °F | °C
As of 11:15 PM on Wednesday 17 Dec 2014 (Local Time) from KMCC Reporting Station
Broken Clouds Broken Clouds  
Wind Chill: 50°   Ceiling: 1800
Heat Index: 50°   Visibility: 7mi
Dew Point: 48°   Wind: 7mph
Humidity: 94%   Direction: 100°E
Pressure: 30.13"   Gusts: NA
Location:  38.66°N, 121.39°W
Report Text: KMCC 180715Z AUTO 10006KT 7SM BKN018 10/09 A3013 RMK AO2
Loading
Personal Weather Stations






























Interactive Weather Map New forecast layout! Learn more

10-Day Weather Forecast

Advertisements
Track Severe Weather on mobile